createdAt,value
2019-03-30T00:00:09.897Z,9.60
2019-03-30T00:02:49.846Z,9.50
2019-03-30T00:05:30.017Z,9.30
2019-03-30T00:08:10.023Z,9.20
2019-03-30T00:10:49.949Z,9.10
2019-03-30T00:13:30.126Z,9.20
2019-03-30T00:16:10.429Z,9.10
2019-03-30T00:18:50.707Z,9.00
2019-03-30T00:21:30.707Z,9.00
2019-03-30T00:24:10.712Z,8.60
2019-03-30T00:26:50.875Z,9.00
2019-03-30T00:29:30.845Z,9.00
2019-03-30T00:32:10.953Z,8.70
2019-03-30T00:34:51.281Z,9.40
2019-03-30T00:37:31.546Z,9.40
2019-03-30T00:40:11.645Z,9.50
2019-03-30T00:42:51.798Z,9.80
2019-03-30T00:45:31.778Z,9.90
2019-03-30T00:48:11.822Z,10.00
2019-03-30T00:50:52.029Z,10.00
2019-03-30T00:53:32.186Z,10.20
2019-03-30T00:56:14.554Z,10.30
2019-03-30T00:58:42.742Z,9.90
2019-03-30T01:01:30.261Z,9.80
2019-03-30T01:04:10.385Z,9.70
2019-03-30T01:06:50.344Z,9.50
2019-03-30T01:09:30.608Z,9.40
2019-03-30T01:12:10.600Z,9.40
2019-03-30T01:14:50.660Z,9.10
2019-03-30T01:17:30.643Z,9.10
2019-03-30T01:20:13.826Z,9.10
2019-03-30T01:22:54.317Z,9.10
2019-03-30T01:25:34.414Z,8.90
2019-03-30T01:28:14.478Z,8.90
2019-03-30T01:30:54.671Z,8.90
2019-03-30T01:33:34.889Z,8.80
2019-03-30T01:36:18.879Z,8.80
2019-03-30T01:38:59.113Z,8.60
2019-03-30T01:41:39.399Z,8.50
2019-03-30T01:44:19.348Z,8.40
2019-03-30T01:46:59.479Z,8.20
2019-03-30T01:49:39.670Z,8.20
2019-03-30T01:52:23.000Z,8.20
2019-03-30T01:55:03.150Z,8.00
2019-03-30T01:57:43.461Z,7.70
2019-03-30T02:00:23.806Z,7.70
2019-03-30T02:03:03.917Z,7.80
2019-03-30T02:05:45.987Z,7.80
2019-03-30T02:08:26.316Z,7.80
2019-03-30T02:11:06.358Z,7.60
2019-03-30T02:13:46.434Z,7.50
2019-03-30T02:16:26.629Z,7.40
2019-03-30T02:19:06.598Z,7.30
2019-03-30T02:21:47.073Z,7.30
2019-03-30T02:24:26.862Z,6.90
2019-03-30T02:27:07.133Z,7.20
2019-03-30T02:29:47.210Z,7.20
2019-03-30T02:32:27.509Z,7.20
2019-03-30T02:35:09.918Z,7.10
2019-03-30T02:37:49.750Z,7.10
2019-03-30T02:40:29.908Z,7.00
2019-03-30T02:43:10.055Z,6.90
2019-03-30T02:45:49.989Z,6.90
2019-03-30T02:48:30.246Z,6.90
2019-03-30T02:51:10.320Z,6.90
2019-03-30T02:53:50.482Z,7.10
2019-03-30T02:56:18.876Z,6.60
2019-03-30T02:59:06.171Z,6.60
2019-03-30T03:01:45.994Z,6.60
2019-03-30T03:04:26.110Z,6.30
2019-03-30T03:07:06.293Z,6.50
2019-03-30T03:09:46.609Z,6.40
2019-03-30T03:12:26.661Z,6.30
2019-03-30T03:15:07.735Z,6.40
2019-03-30T03:17:48.159Z,6.40
2019-03-30T03:20:16.654Z,6.40
2019-03-30T03:23:04.146Z,6.20
2019-03-30T03:25:51.434Z,6.20
2019-03-30T03:28:31.092Z,6.20
2019-03-30T03:31:11.468Z,6.10
2019-03-30T03:33:39.754Z,6.10
2019-03-30T03:36:27.065Z,6.00
2019-03-30T03:39:07.559Z,6.10
2019-03-30T03:41:47.740Z,5.90
2019-03-30T03:44:28.056Z,5.90
2019-03-30T03:47:08.104Z,6.00
2019-03-30T03:49:48.193Z,6.00
2019-03-30T03:52:56.738Z,6.00
2019-03-30T03:58:46.097Z,6.00
2019-03-30T04:01:26.182Z,5.80
2019-03-30T04:04:06.242Z,5.80
2019-03-30T04:06:46.314Z,5.70
2019-03-30T04:09:26.406Z,5.80
2019-03-30T04:12:07.882Z,5.70
2019-03-30T04:14:47.565Z,5.80
2019-03-30T04:17:27.469Z,5.70
2019-03-30T04:20:07.659Z,5.80
2019-03-30T04:22:47.711Z,5.80
2019-03-30T04:25:27.778Z,5.80
2019-03-30T04:28:07.838Z,5.90
2019-03-30T04:30:47.886Z,5.80
2019-03-30T04:33:28.374Z,5.90
2019-03-30T04:36:08.278Z,5.80
2019-03-30T04:38:48.358Z,5.90
2019-03-30T04:41:16.485Z,5.90
2019-03-30T04:44:03.813Z,5.80
2019-03-30T04:46:52.299Z,5.90
2019-03-30T04:49:32.195Z,5.80
2019-03-30T04:52:14.650Z,5.80
2019-03-30T04:54:42.866Z,5.80
2019-03-30T04:57:30.898Z,5.80
2019-03-30T05:00:10.828Z,5.60
2019-03-30T05:02:50.932Z,5.60
2019-03-30T05:05:30.800Z,5.70
2019-03-30T05:08:13.597Z,5.80
2019-03-30T05:10:54.003Z,5.70
2019-03-30T05:13:34.090Z,5.80
2019-03-30T05:16:14.322Z,6.00
2019-03-30T05:18:54.208Z,6.00
2019-03-30T05:21:34.565Z,5.90
2019-03-30T05:24:14.634Z,6.00
2019-03-30T05:26:42.884Z,6.00
2019-03-30T05:29:30.209Z,6.00
2019-03-30T05:32:18.067Z,6.10
2019-03-30T05:34:58.762Z,6.10
2019-03-30T05:37:38.430Z,6.10
2019-03-30T05:40:19.543Z,6.10
2019-03-30T05:42:59.514Z,6.20
2019-03-30T05:45:39.629Z,6.30
2019-03-30T05:48:19.662Z,6.10
2019-03-30T05:51:00.596Z,6.40
2019-03-30T05:53:41.393Z,6.40
2019-03-30T05:56:20.967Z,6.60
2019-03-30T05:59:01.337Z,6.50
2019-03-30T06:01:42.003Z,6.60
2019-03-30T06:04:22.098Z,6.90
2019-03-30T06:07:02.319Z,7.20
2019-03-30T06:09:42.869Z,7.60
2019-03-30T06:12:25.064Z,7.80
2019-03-30T06:15:05.220Z,8.10
2019-03-30T06:17:45.270Z,8.70
2019-03-30T06:20:25.433Z,9.20
2019-03-30T06:23:05.423Z,9.60
2019-03-30T06:25:45.348Z,10.00
2019-03-30T06:28:25.273Z,10.50
2019-03-30T06:31:05.348Z,10.70
2019-03-30T06:33:45.403Z,10.80
2019-03-30T06:36:13.697Z,10.80
2019-03-30T06:39:01.320Z,10.80
2019-03-30T06:41:48.601Z,10.80
2019-03-30T06:44:16.784Z,11.10
2019-03-30T06:47:04.076Z,11.30
2019-03-30T06:49:44.621Z,11.40
2019-03-30T06:52:24.831Z,11.60
2019-03-30T06:55:05.639Z,11.80
2019-03-30T06:57:45.571Z,12.00
2019-03-30T07:00:25.917Z,12.50
2019-03-30T07:03:05.721Z,12.70
2019-03-30T07:05:45.702Z,13.00
2019-03-30T07:08:26.092Z,13.20
2019-03-30T07:11:20.177Z,13.40
2019-03-30T07:13:47.775Z,13.60
2019-03-30T07:16:27.758Z,13.90
2019-03-30T07:19:10.566Z,14.10
2019-03-30T07:21:50.953Z,14.40
2019-03-30T07:24:30.986Z,14.50
2019-03-30T07:27:10.973Z,14.60
2019-03-30T07:29:50.956Z,14.70
2019-03-30T07:32:31.032Z,15.10
2019-03-30T07:35:11.050Z,15.70
2019-03-30T07:37:51.219Z,15.90
2019-03-30T07:40:33.834Z,15.90
2019-03-30T07:43:13.368Z,16.30
2019-03-30T07:45:53.435Z,16.30
2019-03-30T07:51:33.671Z,17.00
2019-03-30T07:54:14.229Z,17.40
2019-03-30T07:57:04.953Z,17.40
2019-03-30T07:59:37.469Z,18.40
2019-03-30T08:02:17.325Z,18.20
2019-03-30T08:04:57.268Z,18.60
2019-03-30T08:07:37.531Z,18.60
2019-03-30T08:10:18.081Z,19.10
2019-03-30T08:12:58.065Z,19.50
2019-03-30T08:15:38.156Z,19.70
2019-03-30T08:18:18.298Z,20.10
2019-03-30T08:20:58.305Z,19.80
2019-03-30T08:23:40.658Z,20.10
2019-03-30T08:26:20.719Z,20.20
2019-03-30T08:29:00.864Z,20.10
2019-03-30T08:31:41.075Z,19.90
2019-03-30T08:34:21.335Z,20.00
2019-03-30T08:37:01.316Z,20.30
2019-03-30T08:39:41.590Z,20.90
2019-03-30T08:42:21.700Z,20.80
2019-03-30T08:45:01.815Z,20.90
2019-03-30T08:47:29.972Z,21.00
2019-03-30T08:50:17.385Z,21.50
2019-03-30T08:52:57.321Z,22.20
2019-03-30T08:55:25.508Z,22.10
2019-03-30T08:58:12.833Z,21.80
2019-03-30T09:01:19.537Z,21.70
2019-03-30T09:04:01.313Z,21.80
2019-03-30T09:06:41.826Z,21.70
2019-03-30T09:09:21.648Z,21.90
2019-03-30T09:12:01.564Z,22.10
2019-03-30T09:14:41.750Z,22.70
2019-03-30T09:17:21.813Z,22.90
2019-03-30T09:20:01.854Z,23.10
2019-03-30T09:22:41.991Z,23.20
2019-03-30T09:25:22.607Z,23.30
2019-03-30T09:28:02.251Z,23.60
2019-03-30T09:30:42.546Z,23.70
2019-03-30T09:33:22.502Z,23.80
2019-03-30T09:36:02.673Z,24.10
2019-03-30T09:38:42.817Z,24.40
2019-03-30T09:41:23.088Z,24.50
2019-03-30T09:43:51.251Z,24.70
2019-03-30T09:46:38.561Z,25.10
2019-03-30T09:49:18.582Z,25.20
2019-03-30T09:51:46.746Z,25.30
2019-03-30T09:57:21.045Z,25.80
2019-03-30T10:00:00.762Z,25.80
2019-03-30T10:02:40.870Z,26.10
2019-03-30T10:05:21.142Z,26.20
2019-03-30T10:08:01.477Z,26.20
2019-03-30T10:10:41.596Z,26.30
2019-03-30T10:13:21.994Z,26.40
2019-03-30T10:15:50.192Z,26.50
2019-03-30T10:18:37.521Z,26.70
2019-03-30T10:21:24.812Z,26.80
2019-03-30T10:24:05.321Z,26.60
2019-03-30T10:26:45.873Z,26.70
2019-03-30T10:29:25.590Z,26.80
2019-03-30T10:32:05.472Z,26.90
2019-03-30T10:34:45.597Z,26.90
2019-03-30T10:37:25.752Z,27.00
2019-03-30T10:40:05.952Z,27.10
2019-03-30T10:42:45.965Z,27.30
2019-03-30T10:45:25.982Z,27.20
2019-03-30T10:48:06.229Z,27.20
2019-03-30T10:50:49.954Z,27.10
2019-03-30T10:53:29.189Z,27.30
2019-03-30T10:55:57.434Z,27.40
2019-03-30T10:58:44.757Z,27.70
2019-03-30T11:01:25.426Z,27.80
2019-03-30T11:04:05.414Z,28.00
2019-03-30T11:06:45.685Z,27.90
2019-03-30T11:09:25.974Z,27.90
2019-03-30T11:12:05.931Z,28.10
2019-03-30T11:14:45.941Z,28.10
2019-03-30T11:17:25.921Z,28.40
2019-03-30T11:20:06.344Z,28.60
2019-03-30T11:22:46.731Z,28.90
2019-03-30T11:25:26.589Z,29.20
2019-03-30T11:28:07.057Z,29.40
2019-03-30T11:30:46.582Z,29.50
2019-03-30T11:33:26.710Z,29.60
2019-03-30T11:36:07.078Z,29.60
2019-03-30T11:38:48.602Z,29.70
2019-03-30T11:41:16.872Z,29.70
2019-03-30T11:44:04.329Z,29.80
2019-03-30T11:46:51.645Z,29.80
2019-03-30T11:49:19.899Z,29.90
2019-03-30T11:51:48.104Z,30.10
2019-03-30T11:57:29.157Z,30.30
2019-03-30T12:00:16.490Z,30.30
2019-03-30T12:02:56.305Z,30.30
2019-03-30T12:05:36.423Z,30.50
2019-03-30T12:08:16.769Z,30.50
2019-03-30T12:10:56.981Z,30.80
2019-03-30T12:13:36.915Z,30.60
2019-03-30T12:16:17.359Z,30.70
2019-03-30T12:18:57.350Z,30.70
2019-03-30T12:21:37.233Z,30.80
2019-03-30T12:24:17.358Z,31.10
2019-03-30T12:26:45.692Z,31.00
2019-03-30T12:29:33.336Z,31.00
2019-03-30T12:32:20.696Z,30.90
2019-03-30T12:35:00.882Z,31.10
2019-03-30T12:37:41.050Z,31.30
2019-03-30T12:40:21.320Z,31.60
2019-03-30T12:43:01.468Z,31.30
2019-03-30T12:48:42.753Z,31.50
2019-03-30T12:51:23.606Z,31.60
2019-03-30T12:54:03.953Z,31.50
2019-03-30T12:56:44.066Z,31.80
2019-03-30T12:59:24.194Z,32.10
2019-03-30T13:02:04.217Z,32.20
2019-03-30T13:04:44.371Z,32.10
2019-03-30T13:07:24.617Z,32.10
2019-03-30T13:10:04.640Z,32.30
2019-03-30T13:12:45.198Z,32.40
2019-03-30T13:15:24.919Z,32.50
2019-03-30T13:18:04.978Z,32.30
2019-03-30T13:20:45.525Z,32.50
2019-03-30T13:23:27.678Z,32.50
2019-03-30T13:26:08.206Z,32.70
2019-03-30T13:28:48.406Z,32.80
2019-03-30T13:31:28.850Z,32.80
2019-03-30T13:34:09.866Z,32.70
2019-03-30T13:36:49.886Z,32.70
2019-03-30T13:39:29.865Z,32.50
2019-03-30T13:42:10.271Z,32.50
2019-03-30T13:47:32.500Z,32.50
2019-03-30T13:50:13.796Z,32.60
2019-03-30T13:52:53.642Z,32.70
2019-03-30T13:55:33.751Z,32.80
2019-03-30T13:58:14.174Z,33.10
2019-03-30T14:00:53.741Z,33.20
2019-03-30T14:03:33.861Z,33.30
2019-03-30T14:06:13.941Z,33.40
2019-03-30T14:08:54.010Z,33.60
2019-03-30T14:11:34.031Z,33.70
2019-03-30T14:14:14.271Z,33.70
2019-03-30T14:16:56.781Z,33.80
2019-03-30T14:19:36.500Z,33.80
2019-03-30T14:22:16.687Z,33.60
2019-03-30T14:24:56.617Z,33.60
2019-03-30T14:27:38.535Z,33.50
2019-03-30T14:30:19.283Z,33.70
2019-03-30T14:32:47.521Z,33.50
2019-03-30T14:35:34.828Z,33.60
2019-03-30T14:41:16.487Z,33.30
2019-03-30T14:44:03.774Z,33.30
2019-03-30T14:46:52.546Z,33.20
2019-03-30T14:49:33.029Z,33.00
2019-03-30T14:52:14.425Z,32.80
2019-03-30T14:54:54.519Z,32.80
2019-03-30T14:57:37.679Z,32.70
2019-03-30T15:00:18.688Z,32.60
2019-03-30T15:02:58.405Z,32.40
2019-03-30T15:05:38.547Z,32.30
2019-03-30T15:08:18.614Z,32.20
2019-03-30T15:13:41.873Z,31.90
2019-03-30T15:16:29.308Z,31.80
2019-03-30T15:19:17.585Z,31.50
2019-03-30T15:21:57.731Z,31.40
2019-03-30T15:24:37.647Z,31.10
2019-03-30T15:27:17.580Z,31.00
2019-03-30T15:29:58.704Z,30.80
2019-03-30T15:32:38.882Z,30.50
2019-03-30T15:35:19.013Z,29.90
2019-03-30T15:37:59.196Z,29.30
2019-03-30T15:40:39.245Z,29.00
2019-03-30T15:43:19.387Z,28.60
2019-03-30T15:45:47.668Z,28.20
2019-03-30T15:48:34.966Z,27.70
2019-03-30T15:51:15.061Z,27.20
2019-03-30T15:53:55.929Z,26.60
2019-03-30T15:56:36.290Z,26.20
2019-03-30T15:59:16.449Z,25.70
2019-03-30T16:01:58.403Z,25.40
2019-03-30T16:04:38.659Z,25.00
2019-03-30T16:07:18.592Z,24.60
2019-03-30T16:09:58.738Z,24.30
2019-03-30T16:12:38.921Z,24.00
2019-03-30T16:15:20.301Z,23.60
2019-03-30T16:18:00.595Z,23.50
2019-03-30T16:20:42.524Z,23.20
2019-03-30T16:23:23.122Z,23.10
2019-03-30T16:26:03.169Z,22.90
2019-03-30T16:28:43.419Z,22.90
2019-03-30T16:31:23.438Z,22.60
2019-03-30T16:34:03.635Z,22.60
2019-03-30T16:36:43.734Z,22.40
2019-03-30T16:39:24.142Z,22.30
2019-03-30T16:45:16.526Z,22.00
2019-03-30T16:47:56.533Z,21.80
2019-03-30T16:50:36.689Z,21.60
2019-03-30T16:53:17.234Z,21.50
2019-03-30T16:55:56.951Z,21.30
2019-03-30T16:58:36.963Z,21.30
2019-03-30T17:01:17.141Z,21.20
2019-03-30T17:03:57.527Z,21.10
2019-03-30T17:06:37.485Z,21.10
2019-03-30T17:09:17.650Z,20.70
2019-03-30T17:11:58.122Z,20.70
2019-03-30T17:14:38.421Z,20.60
2019-03-30T17:17:18.067Z,20.40
2019-03-30T17:19:59.906Z,20.40
2019-03-30T17:22:40.802Z,20.40
2019-03-30T17:25:20.609Z,20.20
2019-03-30T17:28:01.009Z,20.00
2019-03-30T17:30:42.282Z,19.90
2019-03-30T17:33:22.359Z,19.90
2019-03-30T17:36:04.327Z,19.60
2019-03-30T17:38:46.340Z,19.50
2019-03-30T17:41:26.787Z,19.40
2019-03-30T17:44:06.567Z,19.30
2019-03-30T17:46:46.311Z,19.10
2019-03-30T17:49:26.360Z,19.10
2019-03-30T17:52:06.361Z,19.00
2019-03-30T17:54:46.477Z,18.70
2019-03-30T17:57:27.688Z,18.50
2019-03-30T18:00:08.183Z,18.50
2019-03-30T18:02:50.103Z,18.40
2019-03-30T18:08:12.575Z,18.10
2019-03-30T18:10:52.898Z,18.00
2019-03-30T18:13:36.855Z,17.80
2019-03-30T18:16:17.045Z,17.50
2019-03-30T18:21:56.686Z,17.10
2019-03-30T18:24:36.345Z,17.00
2019-03-30T18:27:16.774Z,16.80
2019-03-30T18:29:56.794Z,16.70
2019-03-30T18:32:36.777Z,16.50
2019-03-30T18:35:17.046Z,16.60
2019-03-30T18:37:57.060Z,16.30
2019-03-30T18:40:37.213Z,16.30
2019-03-30T18:43:17.509Z,16.10
2019-03-30T18:45:57.403Z,15.80
2019-03-30T18:48:37.118Z,15.70
2019-03-30T18:51:17.118Z,15.70
2019-03-30T18:53:57.299Z,15.50
2019-03-30T18:56:37.435Z,15.40
2019-03-30T18:59:17.309Z,15.40
2019-03-30T19:01:57.413Z,15.20
2019-03-30T19:04:37.498Z,15.10
2019-03-30T19:07:17.769Z,14.90
2019-03-30T19:09:57.499Z,14.90
2019-03-30T19:15:35.745Z,14.80
2019-03-30T19:18:14.220Z,14.70
2019-03-30T19:21:01.569Z,14.70
2019-03-30T19:23:41.621Z,14.50
2019-03-30T19:26:21.610Z,14.40
2019-03-30T19:29:01.740Z,14.40
2019-03-30T19:31:41.929Z,14.50
2019-03-30T19:34:22.889Z,14.30
2019-03-30T19:37:03.434Z,14.30
2019-03-30T19:39:43.610Z,14.30
2019-03-30T19:42:24.230Z,14.20
2019-03-30T19:45:03.849Z,14.20
2019-03-30T19:47:44.065Z,14.20
2019-03-30T19:50:24.173Z,14.10
2019-03-30T19:53:04.605Z,14.00
2019-03-30T19:55:44.570Z,14.00
2019-03-30T19:58:24.694Z,13.90
2019-03-30T20:01:04.694Z,14.00
2019-03-30T20:03:44.857Z,13.90
2019-03-30T20:06:24.622Z,14.00
2019-03-30T20:09:04.679Z,13.80
2019-03-30T20:11:44.843Z,14.10
2019-03-30T20:14:24.916Z,13.70
2019-03-30T20:17:05.097Z,13.70
2019-03-30T20:19:45.209Z,13.70
2019-03-30T20:22:27.865Z,13.70
2019-03-30T20:25:07.551Z,13.90
2019-03-30T20:27:48.582Z,14.00
2019-03-30T20:30:28.979Z,13.70
2019-03-30T20:33:08.796Z,13.50
2019-03-30T20:35:49.026Z,13.60
2019-03-30T20:38:29.221Z,13.60
2019-03-30T20:41:09.159Z,13.40
2019-03-30T20:43:49.173Z,13.50
2019-03-30T20:46:29.240Z,13.60
2019-03-30T20:49:09.181Z,13.80
2019-03-30T20:51:48.998Z,13.70
2019-03-30T20:54:29.145Z,14.00
2019-03-30T20:57:09.239Z,13.90
2019-03-30T20:59:49.335Z,14.10
2019-03-30T21:02:29.249Z,13.80
2019-03-30T21:05:09.370Z,13.80
2019-03-30T21:07:49.576Z,13.50
2019-03-30T21:10:30.003Z,13.60
2019-03-30T21:13:09.822Z,13.50
2019-03-30T21:15:49.897Z,13.60
2019-03-30T21:18:29.845Z,13.60
2019-03-30T21:21:09.890Z,13.60
2019-03-30T21:23:49.918Z,13.50
2019-03-30T21:26:30.449Z,13.40
2019-03-30T21:29:10.126Z,13.00
2019-03-30T21:31:50.122Z,12.90
2019-03-30T21:34:30.189Z,13.00
2019-03-30T21:37:10.578Z,12.90
2019-03-30T21:39:50.494Z,12.70
2019-03-30T21:42:30.811Z,12.70
2019-03-30T21:45:10.873Z,12.30
2019-03-30T21:47:50.989Z,12.40
2019-03-30T21:50:31.078Z,12.20
2019-03-30T21:53:11.278Z,12.10
2019-03-30T21:55:51.575Z,11.90
2019-03-30T21:58:31.669Z,12.00
2019-03-30T22:01:12.433Z,12.00
2019-03-30T22:03:53.464Z,11.90
2019-03-30T22:09:32.797Z,12.10
2019-03-30T22:12:12.574Z,11.90
2019-03-30T22:14:52.641Z,11.90
2019-03-30T22:17:32.735Z,11.90
2019-03-30T22:20:12.917Z,11.80
2019-03-30T22:22:53.078Z,11.70
2019-03-30T22:25:33.213Z,11.80
2019-03-30T22:28:21.661Z,11.80
2019-03-30T22:31:09.220Z,12.00
2019-03-30T22:33:48.926Z,12.00
2019-03-30T22:36:29.064Z,11.80
2019-03-30T22:39:09.436Z,11.70
2019-03-30T22:41:51.845Z,11.70
2019-03-30T22:44:31.720Z,11.80
2019-03-30T22:47:12.097Z,11.70
2019-03-30T22:49:52.728Z,11.80
2019-03-30T22:52:21.003Z,11.50
2019-03-30T22:55:08.397Z,11.70
2019-03-30T22:57:48.899Z,11.50
2019-03-30T23:00:48.522Z,11.50
2019-03-30T23:03:28.237Z,11.50
2019-03-30T23:06:07.959Z,11.50
2019-03-30T23:08:47.992Z,11.60
2019-03-30T23:11:16.340Z,11.40
2019-03-30T23:14:03.661Z,11.80
2019-03-30T23:16:50.974Z,11.50
2019-03-30T23:19:31.770Z,11.70
2019-03-30T23:22:11.510Z,11.60
2019-03-30T23:24:51.750Z,11.60
2019-03-30T23:27:31.725Z,11.40
2019-03-30T23:30:11.825Z,11.40
2019-03-30T23:32:51.965Z,11.40
2019-03-30T23:35:31.823Z,11.20
2019-03-30T23:38:00.443Z,11.30
2019-03-30T23:40:48.142Z,11.30
2019-03-30T23:43:35.467Z,11.30
2019-03-30T23:46:15.734Z,11.30
2019-03-30T23:48:55.834Z,11.00
2019-03-30T23:51:35.831Z,11.00
2019-03-30T23:54:15.873Z,10.70
2019-03-30T23:59:57.170Z,10.90
